createdAt,value
2019-05-06T00:02:43.615Z,3.52
2019-05-06T00:05:34.101Z,4.20
2019-05-06T00:08:23.894Z,3.50
2019-05-06T00:11:14.236Z,3.15
2019-05-06T00:14:03.966Z,3.75
2019-05-06T00:16:54.761Z,4.12
2019-05-06T00:19:44.794Z,3.62
2019-05-06T00:22:34.355Z,3.70
2019-05-06T00:25:44.180Z,3.95
2019-05-06T00:28:53.911Z,4.40
2019-05-06T00:31:36.749Z,3.98
2019-05-06T00:34:25.568Z,3.50
2019-05-06T00:37:14.692Z,3.35
2019-05-06T00:43:35.322Z,4.83
2019-05-06T00:46:24.379Z,3.77
2019-05-06T00:49:14.718Z,3.83
2019-05-06T00:52:04.251Z,4.42
2019-05-06T00:54:54.690Z,4.03
2019-05-06T00:57:44.743Z,3.00
2019-05-06T01:03:29.557Z,3.95
2019-05-06T01:06:18.370Z,4.30
2019-05-06T01:12:23.997Z,3.70
2019-05-06T01:18:13.780Z,3.72
2019-05-06T01:21:23.686Z,4.05
2019-05-06T01:24:14.509Z,4.42
2019-05-06T01:27:03.983Z,3.72
2019-05-06T01:29:54.866Z,3.80
2019-05-06T01:32:37.495Z,4.50
2019-05-06T01:35:26.350Z,3.45
2019-05-06T01:38:34.218Z,4.00
2019-05-06T01:41:44.180Z,4.53
2019-05-06T01:44:33.889Z,4.45
2019-05-06T01:47:23.748Z,4.00
2019-05-06T01:53:42.128Z,6.33
2019-05-06T01:56:31.199Z,5.45
2019-05-06T01:59:20.209Z,4.20
2019-05-06T02:02:09.052Z,4.42
2019-05-06T02:04:57.873Z,4.50
2019-05-06T02:07:46.764Z,5.30
2019-05-06T02:10:37.932Z,5.03
2019-05-06T02:13:26.196Z,4.85
2019-05-06T02:16:15.097Z,4.80
2019-05-06T02:22:37.351Z,4.50
2019-05-06T02:28:23.578Z,4.78
2019-05-06T02:31:25.666Z,4.87
2019-05-06T02:34:36.480Z,4.87
2019-05-06T02:37:46.093Z,4.45
2019-05-06T02:40:33.686Z,4.90
2019-05-06T02:43:23.300Z,4.60
2019-05-06T02:46:13.150Z,4.87
2019-05-06T02:49:23.562Z,4.87
2019-05-06T02:52:14.059Z,4.60
2019-05-06T02:55:02.113Z,4.35
2019-05-06T02:57:53.579Z,4.85
2019-05-06T03:01:03.480Z,4.70
2019-05-06T03:03:53.603Z,4.72
2019-05-06T03:06:44.444Z,4.85
2019-05-06T03:09:33.966Z,4.85
2019-05-06T03:12:23.049Z,5.60
2019-05-06T03:15:16.584Z,5.65
2019-05-06T03:18:03.975Z,6.75
2019-05-06T03:21:13.775Z,6.47
2019-05-06T03:26:58.119Z,4.92
2019-05-06T03:29:47.002Z,4.97
2019-05-06T03:32:36.040Z,5.97
2019-05-06T03:35:36.131Z,6.50
2019-05-06T03:38:09.997Z,5.67
2019-05-06T03:40:58.810Z,6.62
2019-05-06T03:43:47.656Z,6.95
2019-05-06T03:46:55.643Z,6.83
2019-05-06T03:52:42.909Z,6.37
2019-05-06T04:02:00.840Z,6.92
2019-05-06T04:04:55.890Z,6.55
2019-05-06T04:10:55.647Z,5.72
2019-05-06T04:20:46.256Z,5.85
2019-05-06T04:33:16.310Z,5.83
2019-05-06T04:36:00.219Z,6.85
2019-05-06T04:38:49.048Z,5.12
2019-05-06T04:41:37.872Z,6.00
2019-05-06T04:44:26.794Z,5.87
2019-05-06T04:47:15.709Z,6.85
2019-05-06T04:53:33.734Z,5.20
2019-05-06T04:56:23.926Z,5.50
2019-05-06T04:59:14.285Z,6.70
2019-05-06T05:02:03.139Z,4.20
2019-05-06T05:08:06.918Z,5.08
2019-05-06T05:11:14.853Z,5.35
2019-05-06T05:14:25.680Z,5.15
2019-05-06T05:20:09.483Z,4.65
2019-05-06T05:22:58.380Z,5.17
2019-05-06T05:25:47.219Z,5.35
2019-05-06T05:28:36.531Z,4.75
2019-05-06T05:31:25.494Z,5.12
2019-05-06T05:34:07.256Z,4.85
2019-05-06T05:36:56.247Z,6.08
2019-05-06T05:39:45.158Z,4.60
2019-05-06T05:45:48.580Z,4.80
2019-05-06T05:48:56.452Z,5.22
2019-05-06T05:51:45.264Z,5.53
2019-05-06T05:54:34.174Z,6.05
2019-05-06T05:57:23.249Z,4.92
2019-05-06T06:03:27.359Z,5.17
2019-05-06T06:12:46.289Z,5.33
2019-05-06T06:15:54.114Z,5.55
2019-05-06T06:18:43.145Z,6.10
2019-05-06T06:22:11.844Z,6.17
2019-05-06T06:25:03.883Z,4.95
2019-05-06T06:33:36.702Z,5.67
2019-05-06T06:36:44.708Z,5.83
2019-05-06T06:42:43.015Z,5.03
2019-05-06T06:49:00.250Z,5.70
2019-05-06T06:51:49.170Z,4.83
2019-05-06T06:54:38.030Z,5.28
2019-05-06T06:57:26.554Z,4.80
2019-05-06T07:00:34.507Z,6.20
2019-05-06T07:09:52.613Z,6.13
2019-05-06T07:12:42.697Z,7.00
2019-05-06T07:15:33.615Z,6.27
2019-05-06T07:18:23.225Z,5.57
2019-05-06T07:21:45.333Z,5.23
2019-05-06T07:24:22.841Z,5.60
2019-05-06T07:33:19.502Z,6.00
2019-05-06T07:36:08.319Z,4.85
2019-05-06T07:38:57.247Z,6.12
2019-05-06T07:45:14.503Z,5.50
2019-05-06T07:48:22.357Z,5.20
2019-05-06T07:51:12.443Z,5.20
2019-05-06T07:54:02.831Z,5.55
2019-05-06T07:56:52.775Z,6.60
2019-05-06T07:59:43.217Z,7.17
2019-05-06T08:02:32.192Z,7.35
2019-05-06T08:05:22.449Z,6.58
2019-05-06T08:08:12.942Z,5.62
2019-05-06T08:11:02.699Z,6.27
2019-05-06T08:13:52.918Z,5.03
2019-05-06T08:17:02.443Z,5.77
2019-05-06T08:19:52.947Z,5.62
2019-05-06T08:28:41.398Z,4.47
2019-05-06T08:31:27.634Z,4.73
2019-05-06T08:34:09.613Z,5.30
2019-05-06T08:37:17.470Z,4.63
2019-05-06T08:43:21.953Z,4.17
2019-05-06T08:46:12.550Z,3.10
2019-05-06T08:52:49.483Z,3.13
2019-05-06T08:55:57.438Z,3.50
2019-05-06T09:02:14.700Z,2.73
2019-05-06T09:08:32.458Z,3.30
2019-05-06T09:11:25.621Z,3.27
2019-05-06T09:14:13.888Z,2.70
2019-05-06T09:23:28.211Z,3.00
2019-05-06T09:29:45.460Z,3.50
2019-05-06T09:35:22.983Z,3.83
2019-05-06T09:38:12.767Z,3.40
2019-05-06T09:41:04.987Z,3.60
2019-05-06T09:43:53.031Z,3.50
2019-05-06T09:46:42.639Z,3.23
2019-05-06T09:52:42.716Z,3.70
2019-05-06T10:01:37.753Z,5.43
2019-05-06T10:04:26.573Z,5.20
2019-05-06T10:07:15.484Z,4.80
2019-05-06T10:13:18.972Z,5.20
2019-05-06T10:16:07.903Z,4.90
2019-05-06T10:18:56.719Z,5.10
2019-05-06T10:21:45.570Z,6.00
2019-05-06T10:24:34.465Z,4.97
2019-05-06T10:27:04.047Z,5.70
2019-05-06T10:30:12.541Z,5.10
2019-05-06T10:35:52.877Z,6.27
2019-05-06T10:39:02.379Z,4.70
2019-05-06T10:45:42.564Z,4.97
2019-05-06T10:48:31.097Z,4.47
2019-05-06T10:51:38.999Z,4.80
2019-05-06T10:54:27.860Z,5.47
2019-05-06T11:00:26.195Z,4.93
2019-05-06T11:06:24.421Z,5.37
2019-05-06T11:09:13.599Z,5.70
2019-05-06T11:12:03.819Z,4.97
2019-05-06T11:14:53.221Z,5.73
2019-05-06T11:17:43.714Z,5.27
2019-05-06T11:20:33.914Z,5.70
2019-05-06T11:23:22.775Z,4.77
2019-05-06T11:26:13.123Z,5.50
2019-05-06T11:34:52.825Z,4.63
2019-05-06T11:38:00.683Z,4.87
2019-05-06T11:40:49.581Z,4.50
2019-05-06T11:43:38.498Z,4.20
2019-05-06T11:46:27.341Z,3.90
2019-05-06T11:49:16.182Z,4.23
2019-05-06T11:52:05.246Z,4.50
2019-05-06T11:54:54.174Z,4.40
2019-05-06T12:00:52.690Z,4.63
2019-05-06T12:03:42.971Z,4.10
2019-05-06T12:06:33.072Z,4.40
2019-05-06T12:09:22.449Z,4.20
2019-05-06T12:15:26.055Z,3.83
2019-05-06T12:18:14.875Z,4.57
2019-05-06T12:21:11.186Z,3.97
2019-05-06T12:23:54.495Z,4.10
2019-05-06T12:26:43.412Z,3.90
2019-05-06T12:29:32.453Z,3.83
2019-05-06T12:35:13.607Z,4.10
2019-05-06T12:41:13.889Z,3.40
2019-05-06T12:47:17.102Z,3.17
2019-05-06T12:50:06.480Z,3.77
2019-05-06T12:52:57.747Z,3.40
2019-05-06T12:55:45.964Z,3.70
2019-05-06T12:58:34.961Z,3.80
2019-05-06T13:01:23.796Z,3.83
2019-05-06T13:04:13.703Z,3.60
2019-05-06T13:07:03.256Z,4.00
2019-05-06T13:09:52.928Z,3.87
2019-05-06T13:18:34.273Z,3.97
2019-05-06T13:21:23.107Z,4.23
2019-05-06T13:24:12.319Z,3.80
2019-05-06T13:27:02.852Z,3.90
2019-05-06T13:33:39.221Z,3.70
2019-05-06T13:36:22.602Z,4.70
2019-05-06T13:39:15.009Z,3.70
2019-05-06T13:42:02.343Z,4.83
2019-05-06T13:44:51.245Z,4.23
2019-05-06T13:47:59.136Z,4.87
2019-05-06T13:53:57.396Z,4.73
2019-05-06T13:56:48.964Z,5.23
2019-05-06T13:59:37.331Z,6.60
2019-05-06T14:05:22.994Z,4.67
2019-05-06T14:08:13.053Z,4.63
2019-05-06T14:11:02.995Z,4.50
2019-05-06T14:13:53.084Z,4.80
2019-05-06T14:16:42.609Z,4.67
2019-05-06T14:19:33.233Z,4.67
2019-05-06T14:22:23.490Z,6.00
2019-05-06T14:25:33.353Z,4.77
2019-05-06T14:28:42.944Z,4.73
2019-05-06T14:31:52.478Z,5.30
2019-05-06T14:34:43.278Z,4.53
2019-05-06T14:37:25.517Z,4.40
2019-05-06T14:43:10.185Z,4.17
2019-05-06T14:45:59.031Z,4.73
2019-05-06T14:48:47.908Z,4.27
2019-05-06T14:51:36.782Z,4.00
2019-05-06T14:54:25.621Z,5.73
2019-05-06T15:00:24.025Z,4.50
2019-05-06T15:03:13.086Z,4.83
2019-05-06T15:06:03.426Z,4.60
2019-05-06T15:08:52.280Z,5.63
2019-05-06T15:11:43.166Z,4.33
2019-05-06T15:14:33.088Z,4.30
2019-05-06T15:17:23.078Z,4.70
2019-05-06T15:20:13.134Z,5.07
2019-05-06T15:23:04.367Z,4.90
2019-05-06T15:25:52.600Z,3.90
2019-05-06T15:28:42.535Z,4.90
2019-05-06T15:31:52.898Z,5.57
2019-05-06T15:35:02.500Z,4.90
2019-05-06T15:40:59.958Z,4.00
2019-05-06T15:43:48.786Z,5.50
2019-05-06T15:46:37.628Z,4.50
2019-05-06T15:49:26.550Z,4.70
2019-05-06T15:52:15.467Z,4.70
2019-05-06T15:55:25.195Z,5.17
2019-05-06T15:58:14.052Z,5.53
2019-05-06T16:01:03.345Z,7.37
2019-05-06T16:03:53.540Z,7.15
2019-05-06T16:06:44.735Z,7.50
2019-05-06T16:09:33.152Z,6.92
2019-05-06T16:12:22.161Z,8.08
2019-05-06T16:15:13.013Z,8.10
2019-05-06T16:18:04.431Z,7.87
2019-05-06T16:20:57.219Z,8.20
2019-05-06T16:24:03.838Z,8.98
2019-05-06T16:26:52.838Z,8.43
2019-05-06T16:29:42.914Z,9.10
2019-05-06T16:32:33.290Z,9.15
2019-05-06T16:35:23.090Z,8.75
2019-05-06T16:38:06.870Z,8.15
2019-05-06T16:44:24.074Z,8.70
2019-05-06T16:50:33.796Z,10.20
2019-05-06T16:53:23.055Z,9.40
2019-05-06T16:56:33.304Z,11.20
2019-05-06T16:59:23.846Z,7.87
2019-05-06T17:05:28.182Z,8.35
2019-05-06T17:08:17.070Z,10.28
2019-05-06T17:11:06.015Z,8.85
2019-05-06T17:13:54.870Z,9.78
2019-05-06T17:16:43.745Z,8.13
2019-05-06T17:19:33.043Z,7.47
2019-05-06T17:22:23.273Z,8.70
2019-05-06T17:25:12.266Z,8.63
2019-05-06T17:31:22.315Z,8.95
2019-05-06T17:34:29.825Z,9.90
2019-05-06T17:37:12.968Z,8.80
2019-05-06T17:40:07.916Z,10.15
2019-05-06T17:42:53.247Z,8.78
2019-05-06T17:48:57.984Z,8.90
2019-05-06T17:52:05.831Z,8.65
2019-05-06T17:54:54.684Z,8.60
2019-05-06T17:57:24.277Z,8.55
2019-05-06T18:03:24.666Z,9.60
2019-05-06T18:06:14.286Z,10.90
2019-05-06T18:12:19.136Z,7.50
2019-05-06T18:15:08.203Z,7.47
2019-05-06T18:17:57.036Z,6.97
2019-05-06T18:20:45.908Z,7.08
2019-05-06T18:23:34.971Z,8.95
2019-05-06T18:26:23.831Z,7.12
2019-05-06T18:29:12.780Z,7.50
2019-05-06T18:32:03.768Z,8.55
2019-05-06T18:34:52.774Z,7.75
2019-05-06T18:37:35.881Z,8.23
2019-05-06T18:40:24.802Z,8.53
2019-05-06T18:43:13.725Z,9.50
2019-05-06T18:46:03.039Z,10.38
2019-05-06T18:48:53.314Z,9.35
2019-05-06T18:51:42.709Z,8.80
2019-05-06T18:54:34.008Z,7.90
2019-05-06T18:57:23.455Z,9.18
2019-05-06T19:03:59.815Z,7.90
2019-05-06T19:10:17.093Z,8.38
2019-05-06T19:13:08.575Z,7.70
2019-05-06T19:15:56.832Z,7.15
2019-05-06T19:18:45.730Z,7.72
2019-05-06T19:21:34.600Z,7.40
2019-05-06T19:24:23.536Z,6.75
2019-05-06T19:27:12.788Z,7.60
2019-05-06T19:33:34.149Z,6.67
2019-05-06T19:36:23.511Z,7.08
2019-05-06T19:39:06.577Z,5.50
2019-05-06T19:41:55.388Z,6.78
2019-05-06T19:44:45.550Z,7.30
2019-05-06T19:47:34.895Z,7.17
2019-05-06T19:50:25.968Z,6.30
2019-05-06T19:53:14.380Z,5.90
2019-05-06T19:56:03.248Z,5.70
2019-05-06T19:58:52.667Z,5.78
2019-05-06T20:01:43.062Z,7.20
2019-05-06T20:08:02.867Z,6.85
2019-05-06T20:11:22.810Z,6.97
2019-05-06T20:14:13.512Z,7.85
2019-05-06T20:17:03.740Z,7.80
2019-05-06T20:19:52.960Z,7.15
2019-05-06T20:22:42.287Z,7.95
2019-05-06T20:25:32.632Z,7.20
2019-05-06T20:28:22.724Z,7.47
2019-05-06T20:31:12.202Z,7.03
2019-05-06T20:34:02.210Z,8.45
2019-05-06T20:36:52.816Z,6.58
2019-05-06T20:39:35.222Z,6.87
2019-05-06T20:42:24.191Z,7.65
2019-05-06T20:48:27.706Z,8.55
2019-05-06T20:51:16.536Z,8.20
2019-05-06T20:54:05.467Z,7.53
2019-05-06T20:56:54.286Z,7.00
2019-05-06T20:59:43.318Z,7.90
2019-05-06T21:02:32.680Z,7.50
2019-05-06T21:05:22.971Z,8.15
2019-05-06T21:08:13.031Z,7.47
2019-05-06T21:11:04.072Z,7.90
2019-05-06T21:13:53.150Z,7.25
2019-05-06T21:16:42.379Z,7.33
2019-05-06T21:19:33.269Z,7.67
2019-05-06T21:22:23.454Z,7.40
2019-05-06T21:25:13.050Z,7.12
2019-05-06T21:28:03.189Z,7.67
2019-05-06T21:30:52.314Z,8.00
2019-05-06T21:33:42.807Z,8.43
2019-05-06T21:36:31.776Z,7.95
2019-05-06T21:39:13.020Z,8.35
2019-05-06T21:42:02.131Z,8.53
2019-05-06T21:44:52.253Z,8.48
2019-05-06T21:47:44.328Z,7.45
2019-05-06T21:50:33.022Z,8.10
2019-05-06T21:53:23.139Z,8.90
2019-05-06T21:56:13.405Z,8.10
2019-05-06T21:59:02.408Z,9.15
2019-05-06T22:01:52.112Z,8.23
2019-05-06T22:04:43.341Z,8.53
2019-05-06T22:07:35.790Z,7.37
2019-05-06T22:10:25.173Z,8.88
2019-05-06T22:13:14.594Z,8.40
2019-05-06T22:16:05.007Z,8.00
2019-05-06T22:18:55.275Z,9.50
2019-05-06T22:24:57.714Z,8.73
2019-05-06T22:27:44.585Z,8.88
2019-05-06T22:30:34.656Z,8.85
2019-05-06T22:33:23.568Z,9.10
2019-05-06T22:36:13.177Z,8.95
2019-05-06T22:42:12.589Z,9.20
2019-05-06T22:45:02.003Z,7.83
2019-05-06T22:50:47.740Z,8.83
2019-05-06T22:53:36.587Z,8.73
2019-05-06T22:56:25.568Z,11.33
2019-05-06T22:59:14.471Z,9.15
2019-05-06T23:07:55.650Z,9.35
2019-05-06T23:10:44.712Z,7.92
2019-05-06T23:13:33.693Z,9.38
2019-05-06T23:16:22.679Z,10.40
2019-05-06T23:19:11.563Z,9.10
2019-05-06T23:22:04.038Z,9.35
2019-05-06T23:24:52.267Z,10.25
2019-05-06T23:27:43.816Z,10.25
2019-05-06T23:30:33.431Z,10.50
2019-05-06T23:33:22.984Z,9.25
2019-05-06T23:36:12.140Z,10.35
2019-05-06T23:39:42.987Z,8.90
2019-05-06T23:42:43.955Z,10.28
2019-05-06T23:46:12.116Z,12.35
2019-05-06T23:49:39.707Z,11.60
2019-05-06T23:53:07.199Z,9.65
2019-05-06T23:56:34.777Z,12.37
2019-05-06T23:59:23.596Z,10.85
